Pagrindinis puslapis
METAR-TAF:

METAR-TAF

Oro uostai :

Ranongas, Tailandas

platuma: 09-59N, ilguma: 098-37E, Aukštis: 7 m

Dabartinis oras

Ataskaita buvo paskelbta 1 minutes, ne 13:00 UTC
Ramus vėjas
Temperatūra 24°C
Drėgmė 94%
Slėgis 1010 hPa
Matomumas 10 km arba daugiau
Su prošvaistėmis ne aukštis 2000 ft

METAR: VTSR 281300Z 00000KT 9999 BKN020 24/23 Q1010 NOSIG

Laikas: 20:01 (13:01 UTC)

Prognozė

Ataskaita buvo paskelbta 20 valandos ir 1 minutes, ne 17:00 UTC
Prognozė galioja nuo 28 metu 18 UTC su 29 metu 18 UTC
Vėjas kt iš Šiaurės
Matomumas 10 km arba daugiau
Su prošvaistėmis ne aukštis 2000 ft
Laikinai
nuo 28 metu 20 UTC su 29 metu 02 UTC
Vėjas 15 kt iš Pietvakarių su gūsio iki 25 kt
Matomumas: 3000 m
Mažai debesys ne aukštis 1800 ft, Liūtiniai kamuoliniai debesys.
Išsisklaidę debesys ne aukštis 2000 ft
Su prošvaistėmis ne aukštis 10000 ft
lietus
Tapsmas
nuo 29 metu 04 UTC su 29 metu 06 UTC
Vėjas 6 kt iš Pietvakarių

TAF: VTSR 281700Z 2818/2918 00000KT 9999 BKN020 TEMPO 2820/2902 22015G25KT 3000 RA FEW018CB SCT020 BKN100 BECMG 2904/2906 22006KT

Orai ataskaitas ir orų prognozės (METAR, TAF).

turimą stotys yra geltonos ir raudonos taškus žemėlapyje.

Perkelti pele per norėdami pamatyti stoties vardą.

Tada spustelėkite, norėdami matyti oro stebėjimo ir prognozės.

Norėdami pakeisti žemėlapį: spustelėkite ant žalios mygtukų su juodo kryžiaus žemyn,; žalią mygtuką su brūkšneliu, jei norite nutolinti; arba žalių rodyklių gretimoms žemėlapius.


METAR-TAF: